sensor_id;sensor_type;location;lat;lon;timestamp;pressure;altitude;pressure_sealevel;temperature;humidity
24031;BME280;12240;51.142;22.486;2022-07-10T00:01:11;99209.91;;;12.21;100.00
24031;BME280;12240;51.142;22.486;2022-07-10T00:03:39;99249.31;;;12.43;100.00
24031;BME280;12240;51.142;22.486;2022-07-10T00:06:07;99290.03;;;12.61;100.00
24031;BME280;12240;51.142;22.486;2022-07-10T00:08:35;99280.50;;;12.59;100.00
24031;BME280;12240;51.142;22.486;2022-07-10T00:11:04;99240.28;;;12.36;100.00
24031;BME280;12240;51.142;22.486;2022-07-10T00:13:32;99245.28;;;12.39;100.00
24031;BME280;12240;51.142;22.486;2022-07-10T00:16:00;99271.50;;;12.60;100.00
24031;BME280;12240;51.142;22.486;2022-07-10T00:18:30;99274.66;;;12.63;100.00
24031;BME280;12240;51.142;22.486;2022-07-10T00:20:58;99275.81;;;12.61;100.00
24031;BME280;12240;51.142;22.486;2022-07-10T00:23:26;99277.81;;;12.59;100.00
24031;BME280;12240;51.142;22.486;2022-07-10T00:25:54;99227.25;;;12.33;100.00
24031;BME280;12240;51.142;22.486;2022-07-10T00:28:25;99266.47;;;12.49;100.00
24031;BME280;12240;51.142;22.486;2022-07-10T00:30:53;99263.31;;;12.53;100.00
24031;BME280;12240;51.142;22.486;2022-07-10T00:33:23;99259.97;;;12.51;100.00
24031;BME280;12240;51.142;22.486;2022-07-10T00:35:50;99214.59;;;12.27;100.00
24031;BME280;12240;51.142;22.486;2022-07-10T00:38:19;99255.97;;;12.55;100.00
24031;BME280;12240;51.142;22.486;2022-07-10T00:40:47;99261.63;;;12.52;100.00
24031;BME280;12240;51.142;22.486;2022-07-10T00:43:15;99214.59;;;12.27;100.00
24031;BME280;12240;51.142;22.486;2022-07-10T00:45:45;99251.28;;;12.49;100.00
24031;BME280;12240;51.142;22.486;2022-07-10T00:48:13;99213.75;;;12.27;100.00
24031;BME280;12240;51.142;22.486;2022-07-10T00:50:45;99253.13;;;12.49;100.00
24031;BME280;12240;51.142;22.486;2022-07-10T00:53:13;99207.94;;;12.31;100.00
24031;BME280;12240;51.142;22.486;2022-07-10T00:55:42;99249.63;;;12.56;100.00
24031;BME280;12240;51.142;22.486;2022-07-10T00:58:11;99209.91;;;12.37;100.00
24031;BME280;12240;51.142;22.486;2022-07-10T01:00:40;99235.44;;;12.56;100.00
24031;BME280;12240;51.142;22.486;2022-07-10T01:03:11;99247.59;;;12.66;100.00
24031;BME280;12240;51.142;22.486;2022-07-10T01:05:39;99248.44;;;12.67;100.00
24031;BME280;12240;51.142;22.486;2022-07-10T01:08:07;99240.94;;;12.70;100.00
24031;BME280;12240;51.142;22.486;2022-07-10T01:10:37;99186.69;;;12.46;100.00
24031;BME280;12240;51.142;22.486;2022-07-10T01:13:05;99189.03;;;12.49;100.00
24031;BME280;12240;51.142;22.486;2022-07-10T01:15:36;99221.72;;;12.75;100.00
24031;BME280;12240;51.142;22.486;2022-07-10T01:18:06;99234.72;;;12.86;100.00
24031;BME280;12240;51.142;22.486;2022-07-10T01:20:36;99183.50;;;12.66;100.00
24031;BME280;12240;51.142;22.486;2022-07-10T01:23:04;99229.69;;;12.99;100.00
24031;BME280;12240;51.142;22.486;2022-07-10T01:25:32;99223.84;;;13.04;100.00
24031;BME280;12240;51.142;22.486;2022-07-10T01:28:00;99176.63;;;12.80;100.00
24031;BME280;12240;51.142;22.486;2022-07-10T01:30:28;99170.91;;;12.83;100.00
24031;BME280;12240;51.142;22.486;2022-07-10T01:32:56;99224.16;;;13.17;100.00
24031;BME280;12240;51.142;22.486;2022-07-10T01:35:25;99217.59;;;13.19;100.00
24031;BME280;12240;51.142;22.486;2022-07-10T01:37:53;99211.44;;;13.19;100.00
24031;BME280;12240;51.142;22.486;2022-07-10T01:40:21;99206.59;;;13.22;100.00
24031;BME280;12240;51.142;22.486;2022-07-10T01:42:49;99205.56;;;13.23;100.00
24031;BME280;12240;51.142;22.486;2022-07-10T01:45:17;99205.41;;;13.25;100.00
24031;BME280;12240;51.142;22.486;2022-07-10T01:47:46;99193.53;;;13.19;100.00
24031;BME280;12240;51.142;22.486;2022-07-10T01:50:14;99206.06;;;13.27;100.00
24031;BME280;12240;51.142;22.486;2022-07-10T01:52:42;99204.72;;;13.31;100.00
24031;BME280;12240;51.142;22.486;2022-07-10T01:55:10;99200.84;;;13.33;100.00
24031;BME280;12240;51.142;22.486;2022-07-10T01:57:39;99188.50;;;13.32;100.00
24031;BME280;12240;51.142;22.486;2022-07-10T02:00:07;99187.97;;;13.37;100.00
24031;BME280;12240;51.142;22.486;2022-07-10T02:02:40;99145.50;;;13.03;100.00
24031;BME280;12240;51.142;22.486;2022-07-10T02:05:09;99140.63;;;12.99;100.00
24031;BME280;12240;51.142;22.486;2022-07-10T02:07:37;99199.06;;;13.26;100.00
24031;BME280;12240;51.142;22.486;2022-07-10T02:10:06;99121.31;;;12.88;100.00
24031;BME280;12240;51.142;22.486;2022-07-10T02:12:34;99178.16;;;13.21;100.00
24031;BME280;12240;51.142;22.486;2022-07-10T02:15:02;99185.88;;;13.16;100.00
24031;BME280;12240;51.142;22.486;2022-07-10T02:17:30;99176.06;;;13.09;100.00
24031;BME280;12240;51.142;22.486;2022-07-10T02:19:59;99176.03;;;13.01;100.00
24031;BME280;12240;51.142;22.486;2022-07-10T02:22:27;99168.41;;;12.89;100.00
24031;BME280;12240;51.142;22.486;2022-07-10T02:24:55;99162.59;;;12.78;100.00
24031;BME280;12240;51.142;22.486;2022-07-10T02:27:23;99173.78;;;12.73;100.00
24031;BME280;12240;51.142;22.486;2022-07-10T02:29:51;99175.66;;;12.65;100.00
24031;BME280;12240;51.142;22.486;2022-07-10T02:32:19;99092.50;;;12.05;100.00
24031;BME280;12240;51.142;22.486;2022-07-10T02:34:49;99172.34;;;12.47;100.00
24031;BME280;12240;51.142;22.486;2022-07-10T02:37:18;99141.84;;;12.25;100.00
24031;BME280;12240;51.142;22.486;2022-07-10T02:39:46;99180.88;;;12.42;100.00
24031;BME280;12240;51.142;22.486;2022-07-10T02:42:14;99133.03;;;12.09;100.00
24031;BME280;12240;51.142;22.486;2022-07-10T02:44:42;99173.84;;;12.33;100.00
24031;BME280;12240;51.142;22.486;2022-07-10T02:47:10;99179.03;;;12.27;100.00
24031;BME280;12240;51.142;22.486;2022-07-10T02:49:38;99174.56;;;12.19;100.00
24031;BME280;12240;51.142;22.486;2022-07-10T02:52:07;99175.88;;;12.23;100.00
24031;BME280;12240;51.142;22.486;2022-07-10T02:54:35;99175.88;;;12.23;100.00
24031;BME280;12240;51.142;22.486;2022-07-10T02:57:04;99172.22;;;12.24;100.00
24031;BME280;12240;51.142;22.486;2022-07-10T02:59:32;99168.53;;;12.25;100.00
24031;BME280;12240;51.142;22.486;2022-07-10T03:02:00;99164.53;;;12.21;100.00
24031;BME280;12240;51.142;22.486;2022-07-10T03:04:29;99115.19;;;11.93;100.00
24031;BME280;12240;51.142;22.486;2022-07-10T03:06:57;99167.19;;;12.21;100.00
24031;BME280;12240;51.142;22.486;2022-07-10T03:09:25;99131.34;;;12.00;100.00
24031;BME280;12240;51.142;22.486;2022-07-10T03:11:53;99125.16;;;11.99;100.00
24031;BME280;12240;51.142;22.486;2022-07-10T03:14:21;99142.69;;;12.10;100.00
24031;BME280;12240;51.142;22.486;2022-07-10T03:16:49;99172.72;;;12.28;100.00
24031;BME280;12240;51.142;22.486;2022-07-10T03:19:17;99134.50;;;12.11;100.00
24031;BME280;12240;51.142;22.486;2022-07-10T03:21:46;99171.69;;;12.45;100.00
24031;BME280;12240;51.142;22.486;2022-07-10T03:24:14;99168.66;;;12.56;100.00
24031;BME280;12240;51.142;22.486;2022-07-10T03:26:42;99163.81;;;12.59;100.00
24031;BME280;12240;51.142;22.486;2022-07-10T03:29:12;99169.78;;;12.77;100.00
24031;BME280;12240;51.142;22.486;2022-07-10T03:31:40;99159.06;;;12.85;100.00
24031;BME280;12240;51.142;22.486;2022-07-10T03:34:08;99142.00;;;12.95;100.00
24031;BME280;12240;51.142;22.486;2022-07-10T03:36:37;99175.31;;;13.31;100.00
24031;BME280;12240;51.142;22.486;2022-07-10T03:39:06;99168.69;;;13.49;100.00
24031;BME280;12240;51.142;22.486;2022-07-10T03:41:34;99163.41;;;13.64;100.00
24031;BME280;12240;51.142;22.486;2022-07-10T03:44:02;99155.34;;;13.72;100.00
24031;BME280;12240;51.142;22.486;2022-07-10T03:46:31;99040.06;;;13.06;100.00
24031;BME280;12240;51.142;22.486;2022-07-10T03:48:59;99146.69;;;13.84;100.00
24031;BME280;12240;51.142;22.486;2022-07-10T03:51:27;99150.09;;;14.01;100.00
24031;BME280;12240;51.142;22.486;2022-07-10T03:53:55;99127.81;;;13.86;100.00
24031;BME280;12240;51.142;22.486;2022-07-10T03:56:23;99159.38;;;14.13;100.00
24031;BME280;12240;51.142;22.486;2022-07-10T03:59:10;99145.25;;;14.19;100.00
24031;BME280;12240;51.142;22.486;2022-07-10T04:01:38;99159.38;;;14.36;100.00
24031;BME280;12240;51.142;22.486;2022-07-10T04:04:07;99157.72;;;14.49;100.00
24031;BME280;12240;51.142;22.486;2022-07-10T04:06:35;99012.31;;;13.74;100.00
24031;BME280;12240;51.142;22.486;2022-07-10T04:09:06;99151.91;;;14.60;100.00
24031;BME280;12240;51.142;22.486;2022-07-10T04:11:34;99148.22;;;14.76;100.00
24031;BME280;12240;51.142;22.486;2022-07-10T04:14:03;99149.53;;;14.94;100.00
24031;BME280;12240;51.142;22.486;2022-07-10T04:16:31;99146.72;;;15.17;100.00
24031;BME280;12240;51.142;22.486;2022-07-10T04:18:59;99155.78;;;15.45;100.00
24031;BME280;12240;51.142;22.486;2022-07-10T04:21:27;99136.53;;;15.77;100.00
24031;BME280;12240;51.142;22.486;2022-07-10T04:23:55;99154.25;;;16.14;100.00
24031;BME280;12240;51.142;22.486;2022-07-10T04:26:23;99122.22;;;16.40;100.00
24031;BME280;12240;51.142;22.486;2022-07-10T04:28:52;99096.50;;;16.93;100.00
24031;BME280;12240;51.142;22.486;2022-07-10T04:31:20;99145.09;;;17.25;100.00
24031;BME280;12240;51.142;22.486;2022-07-10T04:33:48;99077.47;;;16.54;100.00
24031;BME280;12240;51.142;22.486;2022-07-10T04:36:16;99135.28;;;16.71;100.00
24031;BME280;12240;51.142;22.486;2022-07-10T04:38:45;99131.16;;;16.19;100.00
24031;BME280;12240;51.142;22.486;2022-07-10T04:41:13;99090.03;;;15.98;100.00
24031;BME280;12240;51.142;22.486;2022-07-10T04:43:41;99112.84;;;16.29;100.00
24031;BME280;12240;51.142;22.486;2022-07-10T04:46:09;99126.50;;;16.34;100.00
24031;BME280;12240;51.142;22.486;2022-07-10T04:48:37;99122.66;;;16.16;100.00
24031;BME280;12240;51.142;22.486;2022-07-10T04:51:05;99123.53;;;16.23;100.00
24031;BME280;12240;51.142;22.486;2022-07-10T04:53:34;99082.47;;;16.35;100.00
24031;BME280;12240;51.142;22.486;2022-07-10T04:56:03;99114.28;;;16.87;100.00
24031;BME280;12240;51.142;22.486;2022-07-10T04:58:31;99116.97;;;17.28;100.00
24031;BME280;12240;51.142;22.486;2022-07-10T05:00:59;99092.25;;;17.11;100.00
24031;BME280;12240;51.142;22.486;2022-07-10T05:03:30;99089.78;;;17.16;100.00
24031;BME280;12240;51.142;22.486;2022-07-10T05:05:59;99119.38;;;17.57;100.00
24031;BME280;12240;51.142;22.486;2022-07-10T05:08:27;99115.44;;;17.60;100.00
24031;BME280;12240;51.142;22.486;2022-07-10T05:10:56;99111.56;;;17.95;100.00
24031;BME280;12240;51.142;22.486;2022-07-10T05:13:24;99098.13;;;18.21;100.00
24031;BME280;12240;51.142;22.486;2022-07-10T05:15:52;99107.00;;;18.74;100.00
24031;BME280;12240;51.142;22.486;2022-07-10T05:18:20;99110.22;;;19.08;100.00
24031;BME280;12240;51.142;22.486;2022-07-10T05:20:49;99101.06;;;19.16;100.00
24031;BME280;12240;51.142;22.486;2022-07-10T05:23:17;99094.16;;;18.69;100.00
24031;BME280;12240;51.142;22.486;2022-07-10T05:25:45;99104.09;;;18.75;100.00
24031;BME280;12240;51.142;22.486;2022-07-10T05:28:13;99054.50;;;18.76;100.00
24031;BME280;12240;51.142;22.486;2022-07-10T05:30:42;99089.19;;;19.23;100.00
24031;BME280;12240;51.142;22.486;2022-07-10T05:33:11;99093.88;;;19.47;100.00
24031;BME280;12240;51.142;22.486;2022-07-10T05:35:39;99090.16;;;19.48;100.00
24031;BME280;12240;51.142;22.486;2022-07-10T05:38:07;99081.13;;;19.61;100.00
24031;BME280;12240;51.142;22.486;2022-07-10T05:40:36;99063.75;;;19.50;100.00
24031;BME280;12240;51.142;22.486;2022-07-10T05:43:04;99078.38;;;19.99;100.00
24031;BME280;12240;51.142;22.486;2022-07-10T05:45:32;99048.78;;;20.35;100.00
24031;BME280;12240;51.142;22.486;2022-07-10T05:48:01;99083.38;;;20.51;100.00
24031;BME280;12240;51.142;22.486;2022-07-10T05:50:29;99090.31;;;20.65;100.00
24031;BME280;12240;51.142;22.486;2022-07-10T05:52:58;99032.78;;;20.09;100.00
24031;BME280;12240;51.142;22.486;2022-07-10T05:55:26;99096.31;;;19.93;100.00
24031;BME280;12240;51.142;22.486;2022-07-10T05:57:54;99092.16;;;19.91;100.00
24031;BME280;12240;51.142;22.486;2022-07-10T06:00:23;99079.59;;;20.52;100.00
24031;BME280;12240;51.142;22.486;2022-07-10T06:02:51;99083.88;;;20.84;100.00
24031;BME280;12240;51.142;22.486;2022-07-10T06:05:19;99085.06;;;21.24;100.00
24031;BME280;12240;51.142;22.486;2022-07-10T06:07:47;99083.59;;;21.58;100.00
24031;BME280;12240;51.142;22.486;2022-07-10T06:10:17;99083.75;;;21.74;100.00
24031;BME280;12240;51.142;22.486;2022-07-10T06:12:45;99088.44;;;21.85;100.00
24031;BME280;12240;51.142;22.486;2022-07-10T06:15:13;99081.94;;;22.74;100.00
24031;BME280;12240;51.142;22.486;2022-07-10T06:17:45;99057.50;;;21.45;100.00
24031;BME280;12240;51.142;22.486;2022-07-10T06:20:14;99096.63;;;21.49;100.00
24031;BME280;12240;51.142;22.486;2022-07-10T06:22:42;99090.81;;;20.98;100.00
24031;BME280;12240;51.142;22.486;2022-07-10T06:25:12;99094.75;;;20.77;100.00
24031;BME280;12240;51.142;22.486;2022-07-10T06:27:40;99052.38;;;20.29;100.00
24031;BME280;12240;51.142;22.486;2022-07-10T06:30:09;99089.72;;;21.17;100.00
24031;BME280;12240;51.142;22.486;2022-07-10T06:32:39;99085.47;;;20.24;100.00
24031;BME280;12240;51.142;22.486;2022-07-10T06:35:07;99062.31;;;20.04;100.00
24031;BME280;12240;51.142;22.486;2022-07-10T06:37:36;99086.63;;;19.79;100.00
24031;BME280;12240;51.142;22.486;2022-07-10T06:40:05;99048.19;;;19.77;100.00
24031;BME280;12240;51.142;22.486;2022-07-10T06:42:33;99081.81;;;20.19;100.00
24031;BME280;12240;51.142;22.486;2022-07-10T06:45:02;99030.44;;;20.37;100.00
24031;BME280;12240;51.142;22.486;2022-07-10T06:47:30;99076.69;;;21.73;100.00
24031;BME280;12240;51.142;22.486;2022-07-10T06:50:25;99074.06;;;20.65;100.00
24031;BME280;12240;51.142;22.486;2022-07-10T06:52:54;99084.00;;;19.66;100.00
24031;BME280;12240;51.142;22.486;2022-07-10T06:55:24;99076.38;;;20.12;100.00
24031;BME280;12240;51.142;22.486;2022-07-10T06:57:54;99055.38;;;20.21;100.00
24031;BME280;12240;51.142;22.486;2022-07-10T07:00:22;99079.41;;;20.71;100.00
24031;BME280;12240;51.142;22.486;2022-07-10T07:02:51;98957.38;;;19.51;100.00
24031;BME280;12240;51.142;22.486;2022-07-10T07:05:20;99070.22;;;20.54;100.00
24031;BME280;12240;51.142;22.486;2022-07-10T07:07:48;99002.56;;;20.18;100.00
24031;BME280;12240;51.142;22.486;2022-07-10T07:10:16;99026.75;;;20.31;100.00
24031;BME280;12240;51.142;22.486;2022-07-10T07:12:44;99070.22;;;20.54;100.00
24031;BME280;12240;51.142;22.486;2022-07-10T07:15:12;99080.31;;;20.83;100.00
24031;BME280;12240;51.142;22.486;2022-07-10T07:17:44;99075.22;;;20.75;100.00
24031;BME280;12240;51.142;22.486;2022-07-10T07:20:26;99068.94;;;21.77;100.00
24031;BME280;12240;51.142;22.486;2022-07-10T07:23:13;98992.44;;;20.07;100.00
24031;BME280;12240;51.142;22.486;2022-07-10T07:25:41;99073.78;;;20.55;100.00
24031;BME280;12240;51.142;22.486;2022-07-10T07:28:13;99020.13;;;20.03;100.00
24031;BME280;12240;51.142;22.486;2022-07-10T07:30:43;99034.25;;;20.05;100.00
24031;BME280;12240;51.142;22.486;2022-07-10T07:33:12;98971.88;;;20.06;100.00
24031;BME280;12240;51.142;22.486;2022-07-10T07:35:40;99063.44;;;20.45;100.00
24031;BME280;12240;51.142;22.486;2022-07-10T07:38:08;99064.75;;;20.97;100.00
24031;BME280;12240;51.142;22.486;2022-07-10T07:40:36;99068.38;;;21.57;100.00
24031;BME280;12240;51.142;22.486;2022-07-10T07:43:05;99068.97;;;21.29;100.00
24031;BME280;12240;51.142;22.486;2022-07-10T07:45:34;99023.66;;;21.07;100.00
24031;BME280;12240;51.142;22.486;2022-07-10T07:48:02;99051.00;;;21.76;100.00
24031;BME280;12240;51.142;22.486;2022-07-10T07:50:35;99011.94;;;21.95;100.00
24031;BME280;12240;51.142;22.486;2022-07-10T07:53:05;99022.22;;;22.05;100.00
24031;BME280;12240;51.142;22.486;2022-07-10T07:55:33;99057.38;;;22.11;100.00
24031;BME280;12240;51.142;22.486;2022-07-10T07:58:03;99021.16;;;21.23;100.00
24031;BME280;12240;51.142;22.486;2022-07-10T08:00:32;99038.94;;;21.01;100.00
24031;BME280;12240;51.142;22.486;2022-07-10T08:03:01;99060.53;;;20.83;100.00
24031;BME280;12240;51.142;22.486;2022-07-10T08:05:29;99019.38;;;20.45;100.00
24031;BME280;12240;51.142;22.486;2022-07-10T08:08:00;99010.38;;;20.26;100.00
24031;BME280;12240;51.142;22.486;2022-07-10T08:10:33;99062.66;;;20.63;100.00
24031;BME280;12240;51.142;22.486;2022-07-10T08:13:01;99064.75;;;20.61;100.00
24031;BME280;12240;51.142;22.486;2022-07-10T08:15:30;99024.06;;;19.82;100.00
24031;BME280;12240;51.142;22.486;2022-07-10T08:17:59;99075.78;;;20.17;100.00
24031;BME280;12240;51.142;22.486;2022-07-10T08:20:29;99032.47;;;20.23;100.00
24031;BME280;12240;51.142;22.486;2022-07-10T08:22:57;99057.78;;;20.29;100.00
24031;BME280;12240;51.142;22.486;2022-07-10T08:25:28;99030.25;;;20.14;100.00
24031;BME280;12240;51.142;22.486;2022-07-10T08:28:05;99013.63;;;20.35;100.00
24031;BME280;12240;51.142;22.486;2022-07-10T08:30:39;99022.91;;;21.00;100.00
24031;BME280;12240;51.142;22.486;2022-07-10T08:33:09;99056.53;;;21.69;100.00
24031;BME280;12240;51.142;22.486;2022-07-10T08:35:37;99026.88;;;21.15;97.76
24031;BME280;12240;51.142;22.486;2022-07-10T08:40:36;98923.81;;;22.67;86.56
24031;BME280;12240;51.142;22.486;2022-07-10T08:43:07;98995.09;;;23.70;77.81
24031;BME280;12240;51.142;22.486;2022-07-10T08:45:35;99046.41;;;24.11;75.07
24031;BME280;12240;51.142;22.486;2022-07-10T08:48:05;99053.03;;;23.87;75.15
24031;BME280;12240;51.142;22.486;2022-07-10T08:50:40;99056.00;;;21.79;80.82
24031;BME280;12240;51.142;22.486;2022-07-10T08:53:38;98991.09;;;20.77;94.50
24031;BME280;12240;51.142;22.486;2022-07-10T08:56:06;98932.50;;;20.35;95.39
24031;BME280;12240;51.142;22.486;2022-07-10T08:58:36;99059.66;;;20.89;92.23
24031;BME280;12240;51.142;22.486;2022-07-10T09:01:05;99047.06;;;21.01;86.85
24031;BME280;12240;51.142;22.486;2022-07-10T09:03:33;99029.72;;;20.48;81.23
24031;BME280;12240;51.142;22.486;2022-07-10T09:06:02;99007.28;;;20.65;83.58
24031;BME280;12240;51.142;22.486;2022-07-10T09:08:31;99072.00;;;19.87;92.66
24031;BME280;12240;51.142;22.486;2022-07-10T09:11:17;99079.75;;;19.01;100.00
24031;BME280;12240;51.142;22.486;2022-07-10T09:14:06;99071.13;;;18.60;100.00
24031;BME280;12240;51.142;22.486;2022-07-10T09:16:39;99066.19;;;18.18;100.00
24031;BME280;12240;51.142;22.486;2022-07-10T09:22:10;99063.06;;;17.69;100.00
24031;BME280;12240;51.142;22.486;2022-07-10T09:24:42;99087.72;;;18.37;100.00
24031;BME280;12240;51.142;22.486;2022-07-10T09:27:13;99057.47;;;18.03;100.00
24031;BME280;12240;51.142;22.486;2022-07-10T09:29:49;99033.63;;;18.52;100.00
24031;BME280;12240;51.142;22.486;2022-07-10T09:32:22;99071.13;;;19.68;100.00
24031;BME280;12240;51.142;22.486;2022-07-10T09:34:52;99033.97;;;20.13;100.00
24031;BME280;12240;51.142;22.486;2022-07-10T09:37:41;99072.56;;;21.41;100.00
24031;BME280;12240;51.142;22.486;2022-07-10T09:40:11;99074.72;;;21.03;100.00
24031;BME280;12240;51.142;22.486;2022-07-10T09:42:43;99032.13;;;20.92;100.00
24031;BME280;12240;51.142;22.486;2022-07-10T09:47:47;99048.91;;;21.19;100.00
24031;BME280;12240;51.142;22.486;2022-07-10T09:50:32;99072.41;;;21.36;100.00
24031;BME280;12240;51.142;22.486;2022-07-10T09:53:04;99092.22;;;21.01;100.00
24031;BME280;12240;51.142;22.486;2022-07-10T09:55:35;99086.59;;;20.17;100.00
24031;BME280;12240;51.142;22.486;2022-07-10T09:58:09;99091.72;;;19.62;100.00
24031;BME280;12240;51.142;22.486;2022-07-10T10:00:39;99081.34;;;20.22;100.00
24031;BME280;12240;51.142;22.486;2022-07-10T10:03:10;99078.59;;;20.89;100.00
24031;BME280;12240;51.142;22.486;2022-07-10T10:09:12;99079.72;;;20.21;92.15
24031;BME280;12240;51.142;22.486;2022-07-10T10:11:41;99080.63;;;20.94;89.75
24031;BME280;12240;51.142;22.486;2022-07-10T10:14:12;99085.50;;;19.93;100.00
24031;BME280;12240;51.142;22.486;2022-07-10T10:16:45;99085.56;;;20.11;100.00
24031;BME280;12240;51.142;22.486;2022-07-10T10:19:14;99054.88;;;18.93;100.00
24031;BME280;12240;51.142;22.486;2022-07-10T10:22:02;99094.25;;;19.07;100.00
24031;BME280;12240;51.142;22.486;2022-07-10T10:24:32;99057.63;;;18.67;100.00
24031;BME280;12240;51.142;22.486;2022-07-10T10:27:02;99063.47;;;18.64;100.00
24031;BME280;12240;51.142;22.486;2022-07-10T10:29:35;98944.06;;;18.88;100.00
24031;BME280;12240;51.142;22.486;2022-07-10T10:32:04;98946.97;;;18.86;97.37
24031;BME280;12240;51.142;22.486;2022-07-10T10:34:44;99048.25;;;19.39;96.20
24031;BME280;12240;51.142;22.486;2022-07-10T10:40:06;99096.72;;;19.90;84.79
24031;BME280;12240;51.142;22.486;2022-07-10T10:42:36;99082.66;;;20.37;80.01
24031;BME280;12240;51.142;22.486;2022-07-10T10:48:13;99100.84;;;19.99;74.07
24031;BME280;12240;51.142;22.486;2022-07-10T10:51:02;99091.13;;;19.54;73.80
24031;BME280;12240;51.142;22.486;2022-07-10T10:53:31;99089.72;;;18.94;73.83
24031;BME280;12240;51.142;22.486;2022-07-10T10:58:40;99106.28;;;19.04;78.21
24031;BME280;12240;51.142;22.486;2022-07-10T11:06:50;99091.19;;;18.90;80.63
24031;BME280;12240;51.142;22.486;2022-07-10T11:14:39;99053.25;;;18.79;74.51
24031;BME280;12240;51.142;22.486;2022-07-10T11:17:10;99032.94;;;18.70;71.08
24031;BME280;12240;51.142;22.486;2022-07-10T11:19:39;99094.88;;;19.09;68.68
24031;BME280;12240;51.142;22.486;2022-07-10T11:24:55;99096.72;;;19.59;77.25
24031;BME280;12240;51.142;22.486;2022-07-10T11:28:06;99092.25;;;19.78;76.72
24031;BME280;12240;51.142;22.486;2022-07-10T11:30:53;99045.41;;;19.59;72.50
24031;BME280;12240;51.142;22.486;2022-07-10T11:33:22;99081.88;;;19.74;72.42
24031;BME280;12240;51.142;22.486;2022-07-10T11:35:52;99051.97;;;19.69;72.90
24031;BME280;12240;51.142;22.486;2022-07-10T11:38:25;99101.03;;;19.66;73.13
24031;BME280;12240;51.142;22.486;2022-07-10T11:40:57;99101.06;;;20.29;72.77
24031;BME280;12240;51.142;22.486;2022-07-10T11:43:25;99100.88;;;20.91;72.91
24031;BME280;12240;51.142;22.486;2022-07-10T11:45:53;99098.91;;;19.75;71.63
24031;BME280;12240;51.142;22.486;2022-07-10T11:48:27;99077.34;;;19.68;69.72
24031;BME280;12240;51.142;22.486;2022-07-10T11:50:55;99104.03;;;20.14;67.75
24031;BME280;12240;51.142;22.486;2022-07-10T11:53:25;99094.72;;;20.41;66.46
24031;BME280;12240;51.142;22.486;2022-07-10T11:55:55;99099.59;;;20.51;64.87
24031;BME280;12240;51.142;22.486;2022-07-10T11:58:23;99103.47;;;20.06;65.06
24031;BME280;12240;51.142;22.486;2022-07-10T12:01:03;99098.63;;;21.06;65.01
24031;BME280;12240;51.142;22.486;2022-07-10T12:03:34;99100.22;;;21.61;64.91
24031;BME280;12240;51.142;22.486;2022-07-10T12:06:05;99093.94;;;21.49;62.08
24031;BME280;12240;51.142;22.486;2022-07-10T12:08:44;99058.72;;;21.02;60.64
24031;BME280;12240;51.142;22.486;2022-07-10T12:11:15;99059.19;;;20.31;61.12
24031;BME280;12240;51.142;22.486;2022-07-10T12:13:45;99062.88;;;20.12;61.03
24031;BME280;12240;51.142;22.486;2022-07-10T12:16:14;99096.72;;;19.90;62.48
24031;BME280;12240;51.142;22.486;2022-07-10T12:18:43;99051.91;;;19.51;63.41
24031;BME280;12240;51.142;22.486;2022-07-10T12:21:14;99017.94;;;19.37;66.19
24031;BME280;12240;51.142;22.486;2022-07-10T12:23:44;99099.03;;;19.87;65.21
24031;BME280;12240;51.142;22.486;2022-07-10T12:26:13;99096.03;;;19.32;66.87
24031;BME280;12240;51.142;22.486;2022-07-10T12:28:55;99072.69;;;19.00;69.88
24031;BME280;12240;51.142;22.486;2022-07-10T12:31:29;99092.22;;;18.89;73.10
24031;BME280;12240;51.142;22.486;2022-07-10T12:34:05;99104.75;;;19.21;76.62
24031;BME280;12240;51.142;22.486;2022-07-10T12:36:52;99106.50;;;19.60;75.40
24031;BME280;12240;51.142;22.486;2022-07-10T12:39:25;99082.59;;;19.19;75.88
24031;BME280;12240;51.142;22.486;2022-07-10T12:42:15;99116.91;;;19.56;79.33
24031;BME280;12240;51.142;22.486;2022-07-10T12:44:52;99075.69;;;19.36;75.65
24031;BME280;12240;51.142;22.486;2022-07-10T12:47:21;99118.97;;;19.54;78.66
24031;BME280;12240;51.142;22.486;2022-07-10T12:49:56;99120.19;;;19.65;74.41
24031;BME280;12240;51.142;22.486;2022-07-10T12:55:19;99129.13;;;19.08;75.08
24031;BME280;12240;51.142;22.486;2022-07-10T12:57:58;99126.06;;;18.85;74.50
24031;BME280;12240;51.142;22.486;2022-07-10T13:00:29;99122.25;;;19.06;75.06
24031;BME280;12240;51.142;22.486;2022-07-10T13:03:03;99125.00;;;18.93;76.26
24031;BME280;12240;51.142;22.486;2022-07-10T13:05:39;99082.34;;;18.64;81.32
24031;BME280;12240;51.142;22.486;2022-07-10T13:08:20;99095.56;;;18.85;79.40
24031;BME280;12240;51.142;22.486;2022-07-10T13:10:54;99076.81;;;19.03;78.89
24031;BME280;12240;51.142;22.486;2022-07-10T13:13:24;99077.56;;;19.29;78.82
24031;BME280;12240;51.142;22.486;2022-07-10T13:15:57;99115.16;;;19.68;76.84
24031;BME280;12240;51.142;22.486;2022-07-10T13:18:27;99108.19;;;19.54;78.94
24031;BME280;12240;51.142;22.486;2022-07-10T13:20:57;99119.28;;;19.40;77.49
24031;BME280;12240;51.142;22.486;2022-07-10T13:23:29;99117.06;;;19.17;78.98
24031;BME280;12240;51.142;22.486;2022-07-10T13:25:58;99071.84;;;19.00;81.34
24031;BME280;12240;51.142;22.486;2022-07-10T13:28:27;99124.47;;;19.28;84.43
24031;BME280;12240;51.142;22.486;2022-07-10T13:30:55;99122.97;;;19.45;82.67
24031;BME280;12240;51.142;22.486;2022-07-10T13:33:24;99114.50;;;19.29;83.48
24031;BME280;12240;51.142;22.486;2022-07-10T13:35:52;99079.78;;;18.88;85.36